• Join FlightAware (Why Join?)
  • Login
  • US Flag 
03:41AM EDT


 

Airport Tracker/Info


-or-


 

Live Flight TrackerFlight Track Log ✈ FIN666 ✈ 14-Nov-2013 ✈ EKCH / CPH - EFHK / HEL

Flight Track Log - Related Links

Times and Time Zones

All times are in EST time to prevent confusion due to time zone crossing. See the FIN666 flight status page for this flight to view local times or setup timezone preferences in your user account.

Time Position Orientation Groundspeed Altitude Reporting Facility
EST Latitude Longitude Course Direction KTS MPH feet Rate Location/Type
07:24AM 55.8453 13.1259 49° Northeast  Level Estimated
07:25AM 55.9207 13.2838 50° Northeast  Level Estimated
07:26AM 55.9958 13.4423 50° Northeast  Level Estimated
07:27AM 56.0708 13.6014 50° Northeast  Level Estimated
07:28AM 56.1456 13.7611 50° Northeast  Level Estimated
07:29AM 56.2202 13.9214 50° Northeast  Level Estimated
07:30AM 56.2945 14.0824 50° Northeast  Level Estimated
07:31AM 56.3687 14.2440 50° Northeast  Level Estimated
07:32AM 56.4426 14.4062 50° Northeast  Level Estimated
07:33AM 56.5163 14.5690 51° Northeast  Level Estimated
07:34AM 56.5899 14.7325 51° Northeast  Level Estimated
07:35AM 56.6632 14.8967 51° Northeast  Level Estimated
07:36AM 56.7362 15.0614 51° Northeast  Level Estimated
07:37AM 56.8091 15.2268 51° Northeast  Level Estimated
07:38AM 56.8817 15.3928 51° Northeast  Level Estimated
07:39AM 56.9542 15.5595 51° Northeast  Level Estimated
07:40AM 57.0264 15.7269 52° Northeast  Level Estimated
07:41AM 57.0983 15.8949 52° Northeast  Level Estimated
07:42AM 57.1711 16.0660 52° Northeast  Level Estimated
07:43AM 57.2437 16.2378 52° Northeast  Level Estimated
07:44AM 57.3160 16.4103 52° Northeast  Level Estimated
07:45AM 57.3881 16.5834 52° Northeast  Level Estimated
07:46AM 57.4600 16.7573 52° Northeast  Level Estimated
07:47AM 57.5316 16.9318 53° Northeast  Level Estimated
07:48AM 57.6030 17.1070 53° Northeast  Level Estimated
07:49AM 57.6741 17.2829 53° Northeast  Level Estimated
07:50AM 57.7450 17.4595 53° Northeast  Level Estimated
07:51AM 57.8157 17.6368 53° Northeast  Level Estimated
07:52AM 57.8861 17.8148 53° Northeast  Level Estimated
07:53AM 57.9562 17.9934 53° Northeast  Level Estimated
07:54AM 58.0261 18.1728 54° Northeast  Level Estimated
07:55AM 58.0957 18.3529 54° Northeast  Level Estimated
07:56AM 58.1651 18.5336 54° Northeast  Level Estimated
07:57AM 58.2342 18.7151 54° Northeast  Level Estimated
07:58AM 58.3031 18.8973 54° Northeast  Level Estimated
07:59AM 58.3717 19.0802 54° Northeast  Level Estimated
08:00AM 58.4401 19.2638 55° Northeast  Level Estimated
08:01AM 58.5081 19.4481 55° Northeast  Level Estimated
08:02AM 58.5760 19.6332 55° Northeast  Level Estimated
08:03AM 58.6435 19.8189 55° Northeast  Level Estimated
08:04AM 58.7108 20.0054 55° Northeast  Level Estimated
08:05AM 58.7778 20.1926 55° Northeast  Level Estimated
08:06AM 58.8445 20.3805 55° Northeast  Level Estimated
08:07AM 58.9110 20.5691 56° Northeast  Level Estimated
08:08AM 58.9772 20.7585 56° Northeast  Level Estimated
08:09AM 59.0431 20.9486 56° Northeast  Level Estimated
08:10AM 59.1087 21.1394 56° Northeast  Level Estimated
08:11AM 59.1741 21.3309 56° Northeast  Level Estimated
08:12AM 59.2392 21.5232 56° Northeast  Level Estimated
08:13AM 59.3040 21.7162 57° Northeast  Level Estimated
08:14AM 59.3685 21.9100 57° Northeast  Level Estimated
08:15AM 59.4327 22.1045 57° Northeast  Level Estimated
08:16AM 59.4966 22.2997 57° Northeast  Level Estimated
08:17AM 59.5602 22.4956 57° Northeast  Level Estimated
08:18AM 59.6236 22.6923 57° Northeast  Level Estimated
08:19AM 59.6866 22.8898 58° Northeast  Level Estimated
08:20AM 59.7493 23.0880 58° Northeast  Level Estimated
08:21AM 59.8118 23.2869 58° Northeast  Level Estimated
08:22AM 59.8739 23.4866 58° Northeast  Level Estimated
08:23AM 59.9358 23.6870 58° Northeast  Level Estimated
08:24AM 59.9973 23.8882 58° Northeast  Level Estimated
08:25AM 60.0585 24.0901 59° Northeast  Level Estimated
08:26AM 60.1194 24.2928 59° Northeast  Level Estimated
08:27AM 60.1800 24.4962 59° Northeast  Level Estimated
08:28AM 60.2403 24.7003 59° Northeast  Level Estimated
08:29AM 60.3003 24.9053 59° Northeast  Level Estimated
08:30AM 60.3172 24.9633 60° Northeast  Level Estimated
08:31AM 60.3172 24.9633 37° Northeast  Level Estimated
08:32AM 60.3172 24.9633 37° Northeast  Level Estimated
08:33AM 60.3172 24.9633 37° Northeast  Level Estimated
08:34AM 60.3172 24.9633 37° Northeast  Level Estimated
08:35AM 60.3172 24.9633 37° Northeast  Level Estimated
08:36AM 60.3172 24.9633 37° Northeast  Level Estimated
08:37AM 60.3172 24.9633 37° Northeast  Level Estimated
08:38AM 60.3172 24.9633 37° Northeast  Level Estimated
08:39AM 60.3172 24.9633 37° Northeast  Level Estimated